Time;durP1;ratioP1;P1;durP2;ratioP2;P2;SDS_P1;SDS_P2;PMS_P1;PMS_P2;Temp;Humidity;BMP_temperature;BMP_pressure;BME280_temperature;BME280_humidity;BME280_pressure;Samples;Min_cycle;Max_cycle;Signal;HPM_P1;HPM_P2
2022/08/07 00:01:15;;;;;;;12.90;10.70;;;;;;;20.17;85.18;99520.58;107554;1274;22418;-59
2022/08/07 00:04:03;;;;;;;12.70;11.20;;;;;;;20.17;85.22;99520.78;107558;1274;22728;-59
2022/08/07 00:06:31;;;;;;;12.20;10.70;;;;;;;20.18;85.11;99522.70;107619;1274;22440;-59
2022/08/07 00:09:02;;;;;;;14.30;12.00;;;;;;;20.16;84.91;99521.20;107468;1274;140003;-59
2022/08/07 00:11:43;;;;;;;15.00;11.70;;;;;;;20.18;84.84;99524.98;107481;1274;22453;-59
2022/08/07 00:14:20;;;;;;;12.30;10.80;;;;;;;20.17;84.80;99520.91;107371;1274;139419;-59
2022/08/07 00:16:51;;;;;;;15.40;11.40;;;;;;;20.17;84.66;99522.63;107491;1274;24116;-59
2022/08/07 00:19:18;;;;;;;15.60;11.80;;;;;;;20.14;84.49;99520.70;107628;1274;22440;-59
2022/08/07 00:21:51;;;;;;;14.40;12.30;;;;;;;20.14;84.52;99520.54;107442;1274;139429;-59
2022/08/07 00:24:27;;;;;;;15.40;12.00;;;;;;;20.12;84.53;99517.76;107607;1274;22409;-60
2022/08/07 00:26:57;;;;;;;16.20;12.10;;;;;;;20.11;84.54;99521.72;107475;1274;141454;-59
2022/08/07 00:29:33;;;;;;;21.00;13.00;;;;;;;20.09;84.48;99524.09;107559;1274;23900;-59
2022/08/07 00:32:04;;;;;;;14.80;12.70;;;;;;;20.07;84.71;99524.67;107555;1274;138574;-59
2022/08/07 00:34:32;;;;;;;14.40;12.40;;;;;;;20.04;84.59;99522.27;107538;1274;22413;-59
2022/08/07 00:37:02;;;;;;;13.20;11.80;;;;;;;20.02;84.60;99522.42;107605;1274;22484;-58
2022/08/07 00:39:34;;;;;;;15.10;12.10;;;;;;;20.00;84.63;99519.77;107518;1274;143437;-58
2022/08/07 00:42:02;;;;;;;14.10;12.20;;;;;;;20.01;84.77;99525.23;107502;1274;22477;-59
2022/08/07 00:44:32;;;;;;;13.00;11.70;;;;;;;19.99;84.86;99528.33;107517;1274;139245;-59
2022/08/07 00:47:00;;;;;;;16.90;12.60;;;;;;;19.97;84.92;99526.66;107674;1274;22424;-59
2022/08/07 00:49:27;;;;;;;15.90;12.20;;;;;;;19.96;85.00;99524.98;107627;1274;22486;-59
2022/08/07 00:52:14;;;;;;;13.50;12.10;;;;;;;19.95;85.14;99525.73;107552;1274;22916;-59
2022/08/07 00:54:46;;;;;;;15.70;11.30;;;;;;;19.92;85.29;99526.25;107474;1274;22414;-59
2022/08/07 00:57:23;;;;;;;18.20;11.40;;;;;;;19.91;85.28;99527.69;107479;1274;140299;-59
2022/08/07 00:59:52;;;;;;;12.90;11.60;;;;;;;19.88;85.49;99524.45;107491;1274;22513;-59
2022/08/07 01:02:20;;;;;;;13.80;12.10;;;;;;;19.88;85.47;99529.86;107351;1274;141055;-59
2022/08/07 01:04:55;;;;;;;15.00;12.70;;;;;;;19.87;85.53;99532.61;107480;1274;22407;-59
2022/08/07 01:07:25;;;;;;;14.90;11.70;;;;;;;19.85;85.50;99537.19;107661;1274;22445;-59
2022/08/07 01:09:53;;;;;;;16.30;12.00;;;;;;;19.85;85.69;99537.80;107445;1274;138416;-59
2022/08/07 01:12:37;;;;;;;13.50;12.00;;;;;;;19.84;85.91;99538.32;107545;1274;22920;-59
2022/08/07 01:15:05;;;;;;;19.40;13.40;;;;;;;19.83;85.89;99540.33;107427;1274;139623;-58
2022/08/07 01:17:38;;;;;;;15.60;12.40;;;;;;;19.83;85.95;99536.98;107695;1274;22892;-57
2022/08/07 01:20:11;;;;;;;16.60;12.60;;;;;;;19.81;85.93;99540.38;107349;1274;140045;-57
2022/08/07 01:22:43;;;;;;;13.30;11.90;;;;;;;19.80;85.91;99537.80;107433;1274;25359;-58
2022/08/07 01:25:30;;;;;;;15.30;11.50;;;;;;;19.78;85.94;99536.98;107611;1274;22425;-58
2022/08/07 01:28:17;;;;;;;19.10;13.50;;;;;;;19.76;86.02;99534.48;107426;1274;23675;-58
2022/08/07 01:30:46;;;;;;;14.20;12.60;;;;;;;19.74;85.96;99534.52;107393;1274;22500;-59
2022/08/07 01:33:17;;;;;;;13.90;12.50;;;;;;;19.71;86.01;99535.86;107264;1277;139803;-58
2022/08/07 01:35:44;;;;;;;15.40;12.70;;;;;;;19.69;86.08;99532.82;107378;1277;22492;-58
2022/08/07 01:38:23;;;;;;;13.90;12.40;;;;;;;19.67;86.32;99531.92;107331;1274;138910;-58
2022/08/07 01:40:59;;;;;;;17.40;12.50;;;;;;;19.67;86.22;99536.73;107502;1274;22462;-58
2022/08/07 01:43:27;;;;;;;12.40;11.00;;;;;;;19.66;86.29;99537.58;107491;1274;22392;-59
2022/08/07 01:46:05;;;;;;;12.70;11.40;;;;;;;19.65;86.34;99534.58;107570;1274;22471;-59
2022/08/07 01:48:39;;;;;;;14.20;12.40;;;;;;;19.63;86.51;99538.11;107517;1274;22447;-58
2022/08/07 01:51:17;;;;;;;19.30;12.00;;;;;;;19.62;86.42;99538.02;107405;1274;139552;-58
2022/08/07 01:54:06;;;;;;;13.30;11.40;;;;;;;19.60;86.32;99541.02;107398;1274;22440;-58
2022/08/07 01:56:51;;;;;;;14.60;11.40;;;;;;;19.60;86.37;99536.72;107472;1274;139082;-57
2022/08/07 01:59:25;;;;;;;14.20;11.80;;;;;;;19.61;86.45;99537.96;107484;1274;22460;-58
2022/08/07 02:02:00;;;;;;;15.30;11.70;;;;;;;19.58;86.46;99534.88;107397;1273;138750;-58
2022/08/07 02:04:41;;;;;;;16.60;12.20;;;;;;;19.58;86.57;99537.59;107510;1275;22536;-58
2022/08/07 02:07:27;;;;;;;14.00;12.50;;;;;;;19.57;86.44;99536.63;107505;1274;22517;-58
2022/08/07 02:10:11;;;;;;;14.80;12.20;;;;;;;19.55;86.71;99536.30;107582;1274;22431;-58
2022/08/07 02:12:41;;;;;;;13.40;12.20;;;;;;;19.53;86.76;99539.43;107524;1274;24109;-57
2022/08/07 02:15:19;;;;;;;;;;;;;;;19.51;86.78;99536.61;107474;1274;139600;-58
2022/08/07 02:17:50;;;;;;;13.20;11.40;;;;;;;19.50;86.84;99539.01;107489;1274;22636;-58
2022/08/07 02:20:18;;;;;;;13.40;12.00;;;;;;;19.48;86.85;99541.11;107263;1274;139191;-58
2022/08/07 02:22:54;;;;;;;12.30;10.60;;;;;;;19.45;86.80;99537.25;107446;1275;22475;-58
2022/08/07 02:25:21;;;;;;;16.20;12.70;;;;;;;19.45;86.86;99541.51;107344;1274;22422;-57
2022/08/07 02:28:08;;;;;;;14.00;11.60;;;;;;;19.41;86.79;99539.37;107387;1274;22619;-58
2022/08/07 02:30:37;;;;;;;14.00;11.40;;;;;;;19.42;86.93;99543.05;107342;1277;22413;-58
2022/08/07 02:33:04;;;;;;;15.10;12.00;;;;;;;19.42;86.97;99542.17;107376;1274;139217;-58
2022/08/07 02:35:35;;;;;;;16.80;12.50;;;;;;;19.41;86.97;99536.05;107541;1274;24007;-58
2022/08/07 02:38:27;;;;;;;13.80;11.60;;;;;;;19.39;87.09;99536.48;107387;1274;140051;-57
2022/08/07 02:40:59;;;;;;;13.90;12.50;;;;;;;19.39;87.01;99537.60;107385;1274;23212;-58
2022/08/07 02:43:26;;;;;;;18.30;12.30;;;;;;;19.40;87.13;99538.97;107390;1274;23579;-58
2022/08/07 02:45:53;;;;;;;14.90;12.30;;;;;;;19.39;87.25;99540.42;107338;1277;139119;-58
2022/08/07 02:48:29;;;;;;;14.20;11.80;;;;;;;19.38;87.26;99537.70;107389;1274;23607;-58
2022/08/07 02:50:56;;;;;;;12.90;11.60;;;;;;;19.38;87.36;99537.36;107408;1274;139522;-58
2022/08/07 02:53:30;;;;;;;14.00;12.40;;;;;;;19.39;87.48;99541.92;107256;1274;22482;-59
2022/08/07 02:56:07;;;;;;;14.30;12.80;;;;;;;19.38;87.53;99541.66;107387;1274;140213;-59
2022/08/07 02:58:46;;;;;;;15.60;12.40;;;;;;;19.38;87.52;99542.27;107567;1274;22502;-59
2022/08/07 03:01:13;;;;;;;13.80;12.40;;;;;;;19.37;87.69;99542.98;107414;1274;22450;-59
2022/08/07 03:03:45;;;;;;;15.50;12.70;;;;;;;19.38;87.98;99543.21;107316;1274;139017;-59
2022/08/07 03:06:19;;;;;;;13.60;12.00;;;;;;;19.39;88.00;99548.55;107533;1274;22431;-59
2022/08/07 03:09:00;;;;;;;14.80;12.70;;;;;;;19.38;88.04;99546.30;107370;1274;139909;-59
2022/08/07 03:11:27;;;;;;;17.50;13.30;;;;;;;19.42;88.26;99550.69;107601;1274;22483;-59
2022/08/07 03:13:59;;;;;;;14.50;12.80;;;;;;;19.42;88.28;99552.05;107345;1274;138768;-57
2022/08/07 03:16:29;;;;;;;14.20;12.40;;;;;;;19.45;88.52;99552.79;107314;1274;22433;-57
2022/08/07 03:18:57;;;;;;;15.80;14.00;;;;;;;19.45;88.63;99551.79;107529;1274;22431;-57
2022/08/07 03:21:24;;;;;;;17.00;12.80;;;;;;;19.45;88.76;99549.67;107305;1274;138790;-57
2022/08/07 03:23:55;;;;;;;16.90;14.10;;;;;;;19.48;89.06;99549.70;107546;1273;22396;-57
2022/08/07 03:26:42;;;;;;;22.20;13.70;;;;;;;19.53;89.22;99551.55;107236;1274;138982;-57
2022/08/07 03:29:31;;;;;;;17.80;14.30;;;;;;;19.56;89.61;99550.31;107486;1274;22433;-57
2022/08/07 03:32:05;;;;;;;21.10;13.60;;;;;;;19.59;89.71;99552.45;107242;1274;140013;-57
2022/08/07 03:34:33;;;;;;;16.30;13.40;;;;;;;19.62;89.95;99552.45;107463;1277;22442;-57
2022/08/07 03:37:12;;;;;;;16.40;12.30;;;;;;;19.66;90.28;99553.58;107606;1274;22478;-55
2022/08/07 03:39:48;;;;;;;15.00;12.80;;;;;;;19.70;90.49;99555.85;107432;1274;139941;-58
2022/08/07 03:42:35;;;;;;;16.80;13.40;;;;;;;19.76;90.68;99553.73;107479;1277;22552;-58
2022/08/07 03:45:03;;;;;;;21.80;14.00;;;;;;;19.81;90.79;99555.86;107471;1274;139185;-58
2022/08/07 03:47:31;;;;;;;19.50;13.50;;;;;;;19.85;91.12;99551.89;107495;1274;22461;-58
2022/08/07 03:50:20;;;;;;;17.00;13.50;;;;;;;19.92;91.22;99555.86;107335;1274;140500;-58
2022/08/07 03:55:48;;;;;;;18.80;14.70;;;;;;;20.08;91.60;99560.70;100985;1312;545256;-59
2022/08/07 03:58:30;;;;;;;17.80;14.00;;;;;;;20.14;91.82;99563.79;102809;1290;23691;-59
2022/08/07 04:01:17;;;;;;;18.70;14.90;;;;;;;20.22;92.13;99564.55;103017;1288;22680;-58
2022/08/07 04:03:48;;;;;;;17.10;14.90;;;;;;;20.28;92.38;99566.73;102550;1290;139527;-59
2022/08/07 04:06:22;;;;;;;17.30;14.50;;;;;;;20.36;92.63;99570.59;102705;1290;22594;-59
2022/08/07 04:09:02;;;;;;;18.00;15.50;;;;;;;20.44;92.88;99571.27;102088;1284;1211567;-59
2022/08/07 04:11:30;;;;;;;17.00;15.30;;;;;;;20.49;92.76;99568.29;103217;1287;24735;-58
2022/08/07 04:14:17;;;;;;;17.00;15.00;;;;;;;20.61;92.57;99569.92;103159;1284;138507;-58
2022/08/07 04:17:04;;;;;;;19.30;15.70;;;;;;;20.72;92.04;99571.42;103101;1287;24360;-58
2022/08/07 04:19:49;;;;;;;16.60;14.60;;;;;;;20.84;91.59;99569.05;103094;1287;140517;-58
2022/08/07 04:22:23;;;;;;;16.40;14.50;;;;;;;20.97;90.94;99565.86;106253;1286;22536;-58
2022/08/07 04:24:57;;;;;;;15.40;13.90;;;;;;;21.09;90.35;99566.57;106287;1286;22597;-58
2022/08/07 04:27:27;;;;;;;19.10;14.70;;;;;;;21.22;90.03;99567.00;106290;1286;138049;-58
2022/08/07 04:30:04;;;;;;;16.20;13.00;;;;;;;21.36;89.76;99564.16;106276;1287;22481;-58
2022/08/07 04:32:56;;;;;;;15.50;13.10;;;;;;;21.49;89.59;99562.62;106261;1284;138793;-58
2022/08/07 04:35:24;;;;;;;18.60;13.40;;;;;;;21.62;89.65;99565.70;106344;1284;22476;-58
2022/08/07 04:37:52;;;;;;;16.20;12.60;;;;;;;21.74;89.59;99565.68;106404;1286;138498;-58
2022/08/07 04:40:32;;;;;;;14.60;13.10;;;;;;;21.87;89.34;99569.95;106582;1284;23664;-59
2022/08/07 04:43:00;;;;;;;12.80;11.30;;;;;;;21.98;88.93;99570.01;106486;1287;22475;-58
2022/08/07 04:45:55;;;;;;;12.70;11.40;;;;;;;22.11;88.39;99570.98;106277;1287;139443;-58
2022/08/07 04:48:40;;;;;;;12.50;11.40;;;;;;;22.26;87.56;99573.89;106536;1284;24311;-58
2022/08/07 04:51:35;;;;;;;12.80;9.90;;;;;;;22.39;86.07;99576.33;106257;1284;139818;-58
2022/08/07 04:54:15;;;;;;;11.90;9.50;;;;;;;22.55;84.68;99576.61;106399;1285;24264;-58
2022/08/07 04:57:09;;;;;;;13.60;9.90;;;;;;;22.70;83.56;99577.16;106070;1287;138907;-58
2022/08/07 05:00:34;;;;;;;15.20;9.60;;;;;;;22.89;82.07;99575.56;106450;1287;23074;-59
2022/08/07 05:03:22;;;;;;;10.50;9.50;;;;;;;23.07;80.75;99578.78;105400;1292;138764;-58
2022/08/07 05:06:51;;;;;;;9.60;8.80;;;;;;;23.23;79.39;99578.22;105544;1292;23671;-58
2022/08/07 05:09:27;;;;;;;11.50;10.10;;;;;;;23.43;78.29;99583.14;104774;1300;140025;-58
2022/08/07 05:12:15;;;;;;;10.80;9.60;;;;;;;23.61;76.98;99582.45;104969;1301;23668;-58
2022/08/07 05:15:00;;;;;;;12.80;9.50;;;;;;;23.80;76.30;99584.67;104971;1300;143052;-58
2022/08/07 05:17:30;;;;;;;10.80;9.80;;;;;;;24.02;75.32;99587.10;104973;1302;22494;-59
2022/08/07 05:20:23;;;;;;;11.10;9.60;;;;;;;24.28;74.20;99584.80;104884;1300;140630;-58
2022/08/07 05:22:54;;;;;;;11.70;10.60;;;;;;;24.50;73.15;99585.59;105081;1300;23509;-58
2022/08/07 05:25:21;;;;;;;11.00;9.80;;;;;;;24.65;72.60;99587.67;105030;1300;22577;-58
2022/08/07 05:28:03;;;;;;;10.20;9.20;;;;;;;24.78;72.24;99591.02;105067;1300;24137;-58
2022/08/07 05:30:50;;;;;;;10.70;9.40;;;;;;;24.86;71.64;99587.36;105139;1303;22581;-58
2022/08/07 05:33:18;;;;;;;17.40;10.10;;;;;;;24.90;71.19;99593.79;104737;1300;138683;-59
2022/08/07 05:35:50;;;;;;;11.80;9.10;;;;;;;24.92;70.77;99593.77;104967;1300;22453;-59
2022/08/07 05:38:18;;;;;;;10.70;9.60;;;;;;;24.96;70.43;99592.64;104890;1294;139499;-59
2022/08/07 05:41:05;;;;;;;9.60;8.60;;;;;;;25.08;69.89;99594.10;102895;1295;23298;-59
2022/08/07 05:43:46;;;;;;;9.90;9.00;;;;;;;25.24;69.31;99589.58;105291;1294;139236;-59
2022/08/07 05:46:33;;;;;;;9.80;8.90;;;;;;;25.49;68.71;99595.48;105904;1286;22907;-59
2022/08/07 05:49:00;;;;;;;10.30;9.30;;;;;;;25.70;67.40;99592.51;106299;1286;22463;-59
2022/08/07 05:51:42;;;;;;;10.70;7.80;;;;;;;25.92;66.45;99592.63;106062;1287;138305;-59
2022/08/07 05:54:15;;;;;;;11.10;8.70;;;;;;;26.13;65.44;99594.35;106528;1286;25037;-58
2022/08/07 05:57:02;;;;;;;11.80;9.30;;;;;;;26.33;64.77;99595.70;106265;1286;139859;-59
2022/08/07 05:59:31;;;;;;;10.30;8.00;;;;;;;26.47;63.69;99592.61;106337;1286;23082;-59
2022/08/07 06:02:18;;;;;;;;;;;;;;;26.57;63.10;99591.39;106304;1286;137503;-59
2022/08/07 06:04:56;;;;;;;9.90;8.90;;;;;;;26.64;63.16;99597.88;106320;1286;22512;-58
2022/08/07 06:07:23;;;;;;;10.90;9.00;;;;;;;26.70;62.79;99597.44;106491;1286;22413;-59
2022/08/07 06:10:10;;;;;;;9.20;8.30;;;;;;;26.75;62.33;99599.89;106347;1286;25179;-58
2022/08/07 06:12:42;;;;;;;9.30;8.40;;;;;;;26.74;62.05;99595.63;106527;1283;22488;-59
2022/08/07 06:15:09;;;;;;;9.80;8.80;;;;;;;26.71;62.13;99597.09;106377;1285;139118;-58
2022/08/07 06:17:42;;;;;;;10.20;9.00;;;;;;;26.71;62.27;99601.07;106335;1285;22644;-59
2022/08/07 06:20:23;;;;;;;12.40;9.50;;;;;;;26.70;62.44;99595.23;106279;1285;137914;-58
2022/08/07 06:23:10;;;;;;;11.10;8.30;;;;;;;26.71;62.74;99602.11;106222;1285;22450;-58
2022/08/07 06:25:57;;;;;;;;;;;;;;;26.74;62.71;99605.69;106218;1285;137755;-58
2022/08/07 06:28:24;;;;;;;11.90;10.10;;;;;;;26.76;62.61;99605.52;106493;1286;23076;-58
2022/08/07 06:30:54;;;;;;;10.70;9.60;;;;;;;26.79;62.89;99605.27;106451;1286;22444;-58
2022/08/07 06:33:21;;;;;;;12.20;9.40;;;;;;;26.80;62.73;99605.21;106190;1286;138501;-58
2022/08/07 06:35:48;;;;;;;10.20;9.20;;;;;;;26.82;62.51;99612.77;106409;1286;22494;-59
2022/08/07 06:38:39;;;;;;;9.90;8.50;;;;;;;26.82;61.93;99607.81;106304;1285;139021;-59
2022/08/07 06:41:41;;;;;;;10.60;8.80;;;;;;;26.80;61.85;99606.17;103206;1286;25378;-58
2022/08/07 06:44:43;;;;;;;10.10;9.10;;;;;;;26.80;61.92;99607.85;102898;1288;138578;-58
2022/08/07 06:47:17;;;;;;;9.90;9.00;;;;;;;26.79;61.71;99606.95;103004;1286;23044;-58
2022/08/07 06:49:46;;;;;;;12.10;9.00;;;;;;;26.79;61.58;99605.27;103114;1283;138418;-59
2022/08/07 06:52:30;;;;;;;10.70;8.80;;;;;;;26.79;61.45;99602.86;103183;1283;25313;-57
2022/08/07 06:55:14;;;;;;;10.30;9.30;;;;;;;26.78;61.89;99602.43;106579;1282;25331;-59
2022/08/07 06:58:03;;;;;;;10.20;9.10;;;;;;;26.78;61.99;99601.64;106462;1282;138316;-59
2022/08/07 07:00:40;;;;;;;10.50;9.50;;;;;;;26.79;61.84;99599.26;106651;1283;23194;-59
2022/08/07 07:03:08;;;;;;;11.20;10.10;;;;;;;26.78;62.15;99600.52;106547;1282;138443;-59
2022/08/07 07:05:42;;;;;;;15.60;9.50;;;;;;;26.79;62.46;99600.56;106804;1282;23296;-59
2022/08/07 07:08:29;;;;;;;11.10;10.00;;;;;;;26.82;62.30;99604.31;106494;1283;137451;-59
2022/08/07 07:11:00;;;;;;;11.00;9.90;;;;;;;26.83;62.32;99599.44;106540;1284;22467;-60
2022/08/07 07:13:42;;;;;;;10.80;9.80;;;;;;;26.85;62.26;99601.95;106619;1283;139081;-60
2022/08/07 07:16:27;;;;;;;10.90;9.90;;;;;;;26.88;61.98;99608.64;106776;1282;22461;-59
2022/08/07 07:19:02;;;;;;;10.10;8.70;;;;;;;26.87;61.90;99607.75;106700;1283;22580;-60
2022/08/07 07:21:51;;;;;;;10.10;9.10;;;;;;;26.87;61.96;99609.83;106655;1284;138394;-60
2022/08/07 07:24:38;;;;;;;9.90;8.90;;;;;;;26.89;62.03;99613.39;106700;1283;22479;-60
2022/08/07 07:27:09;;;;;;;9.00;8.10;;;;;;;26.91;61.47;99617.84;106358;1284;139312;-60
2022/08/07 07:29:37;;;;;;;10.00;9.10;;;;;;;26.92;61.83;99616.75;106732;1283;23362;-60
2022/08/07 07:32:24;;;;;;;11.20;9.10;;;;;;;26.96;61.89;99618.15;106729;1282;139189;-60
2022/08/07 07:34:53;;;;;;;10.90;9.20;;;;;;;27.00;61.56;99619.33;106695;1281;22560;-60
2022/08/07 07:37:19;;;;;;;11.50;9.30;;;;;;;27.03;61.60;99621.80;106691;1282;23101;-60
2022/08/07 07:40:08;;;;;;;9.50;8.50;;;;;;;27.06;61.96;99626.83;106671;1282;22580;-66
2022/08/07 07:42:41;;;;;;;9.70;8.50;;;;;;;27.08;61.71;99629.38;106556;1282;23332;-66
2022/08/07 07:45:13;;;;;;;10.50;9.40;;;;;;;27.12;61.16;99626.16;106671;1283;137664;-66
2022/08/07 07:47:42;;;;;;;9.00;8.00;;;;;;;27.15;60.85;99627.98;106833;1282;24006;-66
2022/08/07 07:50:22;;;;;;;8.20;7.40;;;;;;;27.17;60.13;99627.95;106621;1282;138838;-66
2022/08/07 07:53:05;;;;;;;8.60;7.60;;;;;;;27.18;59.36;99624.05;106863;1283;23881;-66
2022/08/07 07:55:45;;;;;;;9.00;8.20;;;;;;;27.18;59.14;99621.10;107217;1276;137725;-65
2022/08/07 07:58:28;;;;;;;8.80;8.00;;;;;;;27.19;59.56;99627.98;107283;1276;23721;-66
2022/08/07 08:00:56;;;;;;;8.90;8.00;;;;;;;27.19;59.57;99633.34;107139;1276;23519;-66
2022/08/07 08:03:23;;;;;;;8.10;7.10;;;;;;;27.19;59.80;99629.91;106997;1277;137916;-63
2022/08/07 08:06:10;;;;;;;9.60;6.90;;;;;;;27.22;59.31;99632.86;107340;1276;22425;-64
2022/08/07 08:08:40;;;;;;;7.90;7.10;;;;;;;27.25;59.44;99633.41;107036;1276;138568;-64
2022/08/07 08:11:08;;;;;;;10.60;8.20;;;;;;;27.27;58.62;99629.45;107177;1276;22404;-67
2022/08/07 08:13:46;;;;;;;8.80;7.90;;;;;;;27.28;58.87;99625.06;107247;1276;141324;-64
2022/08/07 08:16:42;;;;;;;8.30;7.50;;;;;;;27.32;58.91;99632.11;107371;1276;22389;-64
2022/08/07 08:19:18;;;;;;;9.40;8.10;;;;;;;27.35;58.19;99629.94;107367;1276;22584;-66
2022/08/07 08:28:04;;;;;;;9.40;7.30;;;;;;;27.43;56.84;99632.17;107406;1277;22699;-66
2022/08/07 08:30:32;;;;;;;8.20;7.40;;;;;;;27.44;56.60;99634.20;107302;1276;22480;-66
2022/08/07 08:33:02;;;;;;;10.10;7.00;;;;;;;27.46;56.07;99632.90;107126;1278;137873;-66
2022/08/07 08:35:29;;;;;;;7.00;6.30;;;;;;;27.49;56.21;99631.66;107209;1278;22491;-65
2022/08/07 08:38:15;;;;;;;;;;;;;;;27.53;55.83;99624.09;107139;1278;140755;-66
2022/08/07 08:41:04;;;;;;;7.70;5.50;;;;;;;27.56;55.52;99618.95;107236;1277;22408;-59
2022/08/07 08:43:42;;;;;;;10.10;5.90;;;;;;;27.57;55.51;99618.19;107202;1278;23698;-59
2022/08/07 08:46:33;;;;;;;7.30;6.50;;;;;;;27.60;54.81;99616.97;107139;1276;25506;-59
2022/08/07 08:49:06;;;;;;;7.20;6.50;;;;;;;27.61;54.85;99614.77;107206;1277;23196;-60
2022/08/07 08:51:40;;;;;;;7.60;6.60;;;;;;;27.63;55.08;99611.98;107235;1277;138973;-60
2022/08/07 08:54:31;;;;;;;8.40;5.80;;;;;;;27.66;55.19;99610.23;107325;1277;23380;-60
2022/08/07 08:57:02;;;;;;;7.40;6.70;;;;;;;27.71;54.66;99608.95;107020;1276;137784;-62
2022/08/07 08:59:44;;;;;;;8.40;7.00;;;;;;;27.76;54.56;99595.77;107325;1277;22406;-59
2022/08/07 09:02:18;;;;;;;8.00;6.40;;;;;;;27.75;54.10;99590.54;107169;1276;138156;-60
2022/08/07 09:05:18;;;;;;;6.40;5.50;;;;;;;27.74;54.09;99589.16;107274;1276;22467;-60
2022/08/07 09:08:01;;;;;;;6.70;5.40;;;;;;;27.69;53.77;99587.80;107243;1276;138630;-60
2022/08/07 09:10:33;;;;;;;6.80;5.70;;;;;;;27.64;53.83;99588.59;107316;1277;22557;-60
2022/08/07 09:13:20;;;;;;;6.00;5.40;;;;;;;27.62;54.40;99595.66;107394;1277;22459;-61
2022/08/07 09:16:07;;;;;;;6.00;5.20;;;;;;;27.60;54.47;99608.73;107383;1277;22546;-61
2022/08/07 09:19:11;;;;;;;7.60;5.70;;;;;;;27.57;54.21;99606.34;107167;1277;22540;-61
2022/08/07 09:22:25;;;;;;;6.20;5.60;;;;;;;27.55;54.14;99597.89;107240;1277;138444;-61
2022/08/07 09:25:26;;;;;;;7.20;6.50;;;;;;;27.52;53.82;99594.56;107273;1277;23162;-61
2022/08/07 09:28:05;;;;;;;6.40;5.60;;;;;;;27.53;54.03;99598.24;107194;1277;137627;-60
2022/08/07 09:30:57;;;;;;;;;;;;;;;27.51;54.15;99600.69;107317;1276;23598;-61
2022/08/07 09:33:40;;;;;;;7.40;6.10;;;;;;;27.51;54.24;99596.85;107065;1279;124105;-61
2022/08/07 09:36:29;;;;;;;7.00;6.30;;;;;;;27.48;54.34;99595.66;107208;1276;22409;-60
2022/08/07 09:39:21;;;;;;;10.40;8.70;;;;;;;27.48;54.27;99592.94;107098;1276;138548;-63
2022/08/07 09:42:31;;;;;;;16.30;14.60;;;;;;;27.45;54.73;99590.95;107329;1277;22475;-60
2022/08/07 09:45:11;;;;;;;10.90;7.10;;;;;;;27.44;54.71;99590.71;106677;1282;139842;-60
2022/08/07 09:48:30;;;;;;;6.60;5.20;;;;;;;27.39;53.64;99591.89;106732;1282;25213;-60
2022/08/07 09:51:54;;;;;;;7.50;5.60;;;;;;;27.24;53.75;99599.73;105967;1290;138889;-60
2022/08/07 09:54:53;;;;;;;6.50;5.80;;;;;;;27.06;54.65;99594.39;105825;1290;23377;-61
2022/08/07 09:57:33;;;;;;;7.50;6.00;;;;;;;26.95;55.92;99595.57;105643;1291;138957;-60
2022/08/07 10:00:09;;;;;;;10.40;6.40;;;;;;;26.84;57.36;99594.67;106117;1290;22475;-60
2022/08/07 10:03:02;;;;;;;9.60;7.60;;;;;;;26.74;58.46;99595.14;105909;1290;137594;-58
2022/08/07 10:06:07;;;;;;;8.30;7.00;;;;;;;26.64;59.25;99592.59;106058;1290;24598;-60
2022/08/07 10:09:04;;;;;;;8.30;7.20;;;;;;;26.55;59.96;99586.41;105951;1290;137513;-60
2022/08/07 10:11:55;;;;;;;8.40;6.90;;;;;;;26.42;59.95;99576.52;106208;1287;22423;-59
2022/08/07 10:14:55;;;;;;;7.70;7.00;;;;;;;26.27;60.52;99573.41;106157;1288;139019;-60
2022/08/07 10:17:47;;;;;;;8.60;7.80;;;;;;;26.18;61.82;99575.25;106405;1287;22452;-59
2022/08/07 10:20:56;;;;;;;25.80;14.30;;;;;;;26.13;63.30;99594.17;106299;1287;138570;-60
2022/08/07 10:23:53;;;;;;;15.60;8.80;;;;;;;26.10;64.31;99604.52;106842;1280;22691;-60
2022/08/07 10:27:08;;;;;;;42.60;13.20;;;;;;;26.11;64.51;99607.95;107018;1273;139565;-59
2022/08/07 10:29:46;;;;;;;12.90;8.40;;;;;;;26.11;64.53;99611.14;107559;1273;23300;-60
2022/08/07 10:32:28;;;;;;;11.70;8.80;;;;;;;26.11;64.19;99607.40;107492;1273;138362;-60
2022/08/07 10:35:38;;;;;;;13.30;8.00;;;;;;;26.10;62.56;99604.02;107484;1273;22502;-60
2022/08/07 10:38:28;;;;;;;11.10;8.10;;;;;;;26.11;61.36;99594.93;107347;1273;138301;-60
2022/08/07 10:41:27;;;;;;;10.70;7.20;;;;;;;26.11;61.48;99586.31;107623;1274;22395;-58
2022/08/07 10:44:40;;;;;;;10.80;8.60;;;;;;;26.09;60.83;99580.52;107319;1273;137783;-59
2022/08/07 10:47:11;;;;;;;11.20;8.00;;;;;;;26.04;60.34;99584.80;107491;1274;22460;-59
2022/08/07 10:49:47;;;;;;;13.90;9.20;;;;;;;26.00;60.02;99587.06;107414;1274;139085;-59
2022/08/07 10:52:20;;;;;;;11.50;7.10;;;;;;;25.96;60.51;99596.64;107520;1273;22410;-59
2022/08/07 10:55:10;;;;;;;29.00;8.90;;;;;;;25.93;60.94;99622.79;107416;1273;22906;-60
2022/08/07 10:58:16;;;;;;;15.70;9.00;;;;;;;25.87;62.92;99615.62;107352;1273;138098;-59
2022/08/07 11:00:54;;;;;;;12.00;8.60;;;;;;;25.66;63.24;99617.20;107587;1273;22381;-59
2022/08/07 11:03:31;;;;;;;14.80;7.90;;;;;;;25.38;64.12;99610.05;107351;1273;139243;-59
2022/08/07 11:06:42;;;;;;;12.60;7.90;;;;;;;25.09;64.90;99611.92;107375;1274;23604;-59
2022/08/07 11:09:15;;;;;;;12.40;8.50;;;;;;;24.82;66.06;99611.05;107397;1273;139335;-59
2022/08/07 11:12:05;;;;;;;20.40;9.80;;;;;;;24.59;67.72;99607.20;107323;1275;23226;-60
2022/08/07 11:14:38;;;;;;;11.10;8.70;;;;;;;24.43;69.14;99604.80;107327;1274;139871;-60
2022/08/07 11:17:55;;;;;;;11.30;8.80;;;;;;;24.27;70.04;99602.05;107342;1273;22465;-60
2022/08/07 11:20:58;;;;;;;9.50;7.20;;;;;;;24.13;70.39;99596.70;107346;1275;139705;-60
2022/08/07 11:23:43;;;;;;;10.10;8.10;;;;;;;23.97;69.69;99587.56;107397;1274;22433;-59
2022/08/07 11:26:30;;;;;;;14.60;8.60;;;;;;;23.76;70.73;99576.17;107364;1273;140063;-60
2022/08/07 11:29:15;;;;;;;12.50;7.70;;;;;;;23.55;71.88;99562.95;107523;1273;22653;-59
2022/08/07 11:32:20;;;;;;;28.30;8.90;;;;;;;23.32;72.98;99555.11;107471;1273;139476;-60
2022/08/07 11:35:00;;;;;;;11.90;7.60;;;;;;;23.16;73.73;99561.98;107520;1275;23830;-60
2022/08/07 11:37:43;;;;;;;15.50;7.80;;;;;;;23.03;74.24;99567.36;107519;1273;22457;-60
2022/08/07 11:40:56;;;;;;;11.20;8.20;;;;;;;22.90;75.29;99582.94;107629;1273;23629;-60
2022/08/07 11:43:52;;;;;;;13.40;9.30;;;;;;;22.81;76.82;99594.16;107580;1273;22450;-59
2022/08/07 11:46:45;;;;;;;13.50;9.80;;;;;;;22.73;77.91;99598.88;107020;1279;22521;-59
2022/08/07 11:49:24;;;;;;;13.00;10.40;;;;;;;22.69;78.61;99589.67;106966;1281;22438;-60
2022/08/07 11:52:20;;;;;;;11.30;10.10;;;;;;;22.69;79.35;99585.92;106834;1279;22504;-60
2022/08/07 11:55:17;;;;;;;14.90;10.20;;;;;;;22.70;80.40;99590.13;107028;1281;23161;-60
2022/08/07 11:58:20;;;;;;;17.50;12.90;;;;;;;22.74;81.56;99595.38;106863;1279;22458;-60
2022/08/07 12:01:28;;;;;;;15.00;12.50;;;;;;;22.77;82.16;99593.36;106925;1280;22437;-60
2022/08/07 12:04:28;;;;;;;20.60;13.20;;;;;;;22.78;82.69;99606.27;107071;1280;23111;-60
2022/08/07 12:07:28;;;;;;;15.40;11.00;;;;;;;22.78;82.96;99610.94;106889;1279;24375;-60
2022/08/07 12:10:14;;;;;;;12.60;10.30;;;;;;;22.76;83.24;99605.23;106906;1280;22447;-61
2022/08/07 12:12:50;;;;;;;14.30;10.10;;;;;;;22.72;82.91;99608.13;107106;1279;25351;-60
2022/08/07 12:15:21;;;;;;;13.20;9.60;;;;;;;22.62;82.41;99605.20;106667;1279;138686;-59
2022/08/07 12:18:40;;;;;;;10.20;9.10;;;;;;;22.52;81.94;99603.05;106827;1281;22527;-59
2022/08/07 12:21:28;;;;;;;12.20;9.80;;;;;;;22.35;82.10;99596.58;106868;1279;139545;-59
2022/08/07 12:24:23;;;;;;;12.80;10.10;;;;;;;22.17;82.99;99590.66;107542;1273;22583;-59
2022/08/07 12:27:15;;;;;;;11.20;9.90;;;;;;;22.07;83.94;99596.52;107416;1273;140199;-59